createdAt,value
2019-04-28T00:01:26.793Z,3.67
2019-04-28T00:03:56.308Z,4.27
2019-04-28T00:06:25.909Z,3.15
2019-04-28T00:08:55.195Z,4.10
2019-04-28T00:11:24.469Z,2.90
2019-04-28T00:13:54.022Z,3.12
2019-04-28T00:16:23.578Z,3.60
2019-04-28T00:18:53.030Z,3.20
2019-04-28T00:21:24.379Z,2.87
2019-04-28T00:24:01.707Z,3.70
2019-04-28T00:26:35.697Z,4.00
2019-04-28T00:29:05.413Z,2.77
2019-04-28T00:31:34.677Z,3.73
2019-04-28T00:34:04.206Z,2.67
2019-04-28T00:36:33.837Z,3.62
2019-04-28T00:39:03.668Z,4.78
2019-04-28T00:41:34.569Z,3.05
2019-04-28T00:44:04.021Z,3.45
2019-04-28T00:46:34.969Z,3.80
2019-04-28T00:49:04.485Z,4.12
2019-04-28T00:51:33.762Z,3.27
2019-04-28T00:54:03.419Z,3.33
2019-04-28T00:56:32.709Z,4.30
2019-04-28T00:59:01.990Z,3.55
2019-04-28T01:01:35.625Z,2.80
2019-04-28T01:04:04.960Z,2.60
2019-04-28T01:06:34.320Z,3.53
2019-04-28T01:09:05.136Z,3.95
2019-04-28T01:11:36.515Z,3.40
2019-04-28T01:14:06.030Z,3.85
2019-04-28T01:16:40.166Z,3.10
2019-04-28T01:19:23.674Z,3.37
2019-04-28T01:22:03.618Z,3.62
2019-04-28T01:24:32.893Z,3.20
2019-04-28T01:27:02.541Z,2.67
2019-04-28T01:29:31.821Z,4.42
2019-04-28T01:32:20.329Z,2.92
2019-04-28T01:34:49.982Z,4.28
2019-04-28T01:37:20.617Z,3.40
2019-04-28T01:39:50.329Z,2.90
2019-04-28T01:42:20.389Z,3.50
2019-04-28T01:44:50.158Z,3.90
2019-04-28T01:47:20.500Z,3.15
2019-04-28T01:49:50.889Z,3.30
2019-04-28T01:52:20.350Z,3.13
2019-04-28T01:54:50.239Z,2.95
2019-04-28T01:57:21.282Z,3.27
2019-04-28T01:59:51.077Z,3.98
2019-04-28T02:02:20.441Z,3.05
2019-04-28T02:04:49.956Z,3.73
2019-04-28T02:07:20.600Z,3.73
2019-04-28T02:09:50.057Z,3.07
2019-04-28T02:12:20.361Z,4.00
2019-04-28T02:14:52.055Z,3.10
2019-04-28T02:17:20.933Z,2.93
2019-04-28T02:19:51.570Z,3.85
2019-04-28T02:22:22.613Z,3.43
2019-04-28T02:24:52.182Z,3.30
2019-04-28T02:27:21.633Z,3.65
2019-04-28T02:29:50.905Z,2.60
2019-04-28T02:32:21.272Z,3.37
2019-04-28T02:34:51.474Z,3.30
2019-04-28T02:37:21.050Z,3.90
2019-04-28T02:39:50.702Z,3.58
2019-04-28T02:42:20.980Z,4.37
2019-04-28T02:44:50.788Z,3.55
2019-04-28T02:47:21.919Z,2.60
2019-04-28T02:50:02.094Z,3.42
2019-04-28T02:52:33.338Z,3.43
2019-04-28T02:55:04.725Z,4.08
2019-04-28T02:57:34.013Z,3.35
2019-04-28T03:00:05.602Z,2.60
2019-04-28T03:02:35.401Z,3.95
2019-04-28T03:05:06.910Z,3.20
2019-04-28T03:07:36.270Z,3.87
2019-04-28T03:10:06.125Z,3.80
2019-04-28T03:12:35.400Z,3.05
2019-04-28T03:15:06.834Z,3.30
2019-04-28T03:17:36.107Z,3.37
2019-04-28T03:20:06.503Z,2.80
2019-04-28T03:22:35.777Z,3.10
2019-04-28T03:25:10.988Z,4.47
2019-04-28T03:27:44.266Z,4.00
2019-04-28T03:30:33.998Z,3.95
2019-04-28T03:33:11.610Z,3.37
2019-04-28T03:35:36.329Z,2.67
2019-04-28T03:38:05.618Z,3.00
2019-04-28T03:40:35.963Z,2.80
2019-04-28T03:43:05.267Z,3.60
2019-04-28T03:45:36.446Z,3.05
2019-04-28T03:48:05.746Z,2.20
2019-04-28T03:50:35.016Z,3.67
2019-04-28T03:53:04.321Z,3.72
2019-04-28T03:55:35.028Z,3.55
2019-04-28T03:58:04.498Z,3.10
2019-04-28T04:00:33.790Z,3.70
2019-04-28T04:03:03.073Z,2.90
2019-04-28T04:05:32.421Z,2.83
2019-04-28T04:08:01.701Z,3.50
2019-04-28T04:10:40.331Z,2.85
2019-04-28T04:13:14.412Z,2.80
2019-04-28T04:15:49.231Z,3.87
2019-04-28T04:18:34.377Z,2.95
2019-04-28T04:21:04.327Z,2.65
2019-04-28T04:23:33.617Z,3.27
2019-04-28T04:26:02.894Z,3.33
2019-04-28T04:28:32.209Z,4.00
2019-04-28T04:31:03.163Z,3.33
2019-04-28T04:33:32.447Z,2.83
2019-04-28T04:36:01.953Z,3.15
2019-04-28T04:38:31.607Z,3.30
2019-04-28T04:41:01.659Z,3.02
2019-04-28T04:43:31.537Z,2.97
2019-04-28T04:46:22.046Z,2.53
2019-04-28T04:48:52.063Z,2.98
2019-04-28T04:51:21.802Z,3.90
2019-04-28T04:53:51.706Z,3.20
2019-04-28T04:56:21.698Z,2.70
2019-04-28T04:58:51.166Z,4.47
2019-04-28T05:01:22.372Z,2.80
2019-04-28T05:04:09.565Z,3.52
2019-04-28T05:06:42.381Z,2.85
2019-04-28T05:09:12.324Z,3.98
2019-04-28T05:11:41.600Z,3.35
2019-04-28T05:14:12.098Z,2.87
2019-04-28T05:16:41.637Z,2.87
2019-04-28T05:19:10.933Z,3.00
2019-04-28T05:21:40.564Z,3.20
2019-04-28T05:24:17.492Z,3.05
2019-04-28T05:26:49.638Z,3.73
2019-04-28T05:29:26.438Z,2.93
2019-04-28T05:31:54.807Z,3.35
2019-04-28T05:34:24.035Z,4.00
2019-04-28T05:36:52.945Z,3.30
2019-04-28T05:39:22.541Z,3.42
2019-04-28T05:41:52.008Z,4.30
2019-04-28T05:44:22.344Z,3.90
2019-04-28T05:46:51.637Z,4.47
2019-04-28T05:49:41.085Z,3.47
2019-04-28T05:52:29.935Z,4.40
2019-04-28T05:55:07.113Z,3.95
2019-04-28T05:57:47.204Z,4.75
2019-04-28T06:00:21.557Z,4.90
2019-04-28T06:02:56.368Z,3.70
2019-04-28T06:05:23.454Z,4.90
2019-04-28T06:08:00.202Z,4.00
2019-04-28T06:10:29.882Z,3.83
2019-04-28T06:12:59.799Z,6.45
2019-04-28T06:15:29.550Z,3.37
2019-04-28T06:18:00.119Z,4.28
2019-04-28T06:20:30.326Z,5.27
2019-04-28T06:22:59.745Z,4.70
2019-04-28T06:25:29.326Z,3.85
2019-04-28T06:27:58.597Z,4.45
2019-04-28T06:30:27.884Z,3.98
2019-04-28T06:33:07.127Z,3.67
2019-04-28T06:35:28.162Z,3.80
2019-04-28T06:37:57.441Z,2.92
2019-04-28T06:40:26.729Z,3.33
2019-04-28T06:42:56.005Z,3.98
2019-04-28T06:45:25.277Z,3.70
2019-04-28T06:47:54.606Z,3.35
2019-04-28T06:50:23.923Z,4.28
2019-04-28T06:52:53.188Z,3.63
2019-04-28T06:55:22.765Z,3.80
2019-04-28T06:57:52.045Z,3.67
2019-04-28T07:00:21.318Z,4.35
2019-04-28T07:02:50.608Z,3.83
2019-04-28T07:05:19.875Z,4.43
2019-04-28T07:07:49.158Z,3.87
2019-04-28T07:10:19.513Z,3.55
2019-04-28T07:12:48.793Z,3.65
2019-04-28T07:15:18.145Z,3.17
2019-04-28T07:17:47.697Z,4.20
2019-04-28T07:20:18.617Z,5.10
2019-04-28T07:22:47.889Z,3.30
2019-04-28T07:25:17.450Z,3.10
2019-04-28T07:27:46.722Z,4.63
2019-04-28T07:30:17.967Z,2.97
2019-04-28T07:32:47.237Z,3.80
2019-04-28T07:35:16.905Z,4.50
2019-04-28T07:37:46.177Z,4.00
2019-04-28T07:40:15.465Z,3.63
2019-04-28T07:42:44.738Z,3.90
2019-04-28T07:45:14.083Z,3.03
2019-04-28T07:47:43.364Z,4.70
2019-04-28T07:50:12.876Z,3.60
2019-04-28T07:52:43.799Z,10.27
2019-04-28T07:55:13.146Z,3.57
2019-04-28T07:57:42.430Z,3.70
2019-04-28T08:00:13.783Z,12.43
2019-04-28T08:02:43.065Z,5.57
2019-04-28T08:05:12.335Z,5.20
2019-04-28T08:07:41.617Z,4.40
2019-04-28T08:10:11.123Z,3.10
2019-04-28T08:12:40.721Z,3.87
2019-04-28T08:15:10.240Z,3.70
2019-04-28T08:17:39.513Z,3.57
2019-04-28T08:20:08.956Z,3.97
2019-04-28T08:22:38.229Z,3.70
2019-04-28T08:25:09.580Z,4.03
2019-04-28T08:27:39.192Z,3.90
2019-04-28T08:30:09.203Z,3.30
2019-04-28T08:32:46.181Z,3.73
2019-04-28T08:35:15.797Z,4.20
2019-04-28T08:37:45.077Z,4.13
2019-04-28T08:40:14.791Z,4.37
2019-04-28T08:42:44.073Z,3.87
2019-04-28T08:45:13.784Z,4.53
2019-04-28T08:47:43.072Z,5.03
2019-04-28T08:50:12.717Z,4.93
2019-04-28T08:52:42.031Z,4.10
2019-04-28T08:55:11.453Z,4.23
2019-04-28T08:57:40.731Z,4.87
2019-04-28T09:00:11.913Z,4.80
2019-04-28T09:02:41.185Z,4.43
2019-04-28T09:05:10.701Z,5.13
2019-04-28T09:07:40.289Z,4.10
2019-04-28T09:10:09.877Z,3.80
2019-04-28T09:12:39.144Z,3.37
2019-04-28T09:15:08.865Z,3.87
2019-04-28T09:17:38.167Z,4.47
2019-04-28T09:20:08.123Z,3.50
2019-04-28T09:22:37.729Z,3.80
2019-04-28T09:25:07.446Z,3.50
2019-04-28T09:27:36.720Z,3.50
2019-04-28T09:30:07.066Z,4.43
2019-04-28T09:32:36.574Z,3.80
2019-04-28T09:35:07.469Z,3.50
2019-04-28T09:37:36.740Z,3.40
2019-04-28T09:40:13.909Z,3.27
2019-04-28T09:42:45.141Z,3.00
2019-04-28T09:45:19.177Z,3.47
2019-04-28T09:47:48.441Z,3.43
2019-04-28T09:50:17.966Z,3.50
2019-04-28T09:52:48.880Z,3.30
2019-04-28T09:55:18.236Z,2.87
2019-04-28T09:57:47.502Z,4.70
2019-04-28T10:00:17.017Z,3.87
2019-04-28T10:02:46.290Z,3.27
2019-04-28T10:05:15.657Z,3.03
2019-04-28T10:07:44.929Z,3.30
2019-04-28T10:10:14.849Z,2.40
2019-04-28T10:12:44.129Z,1.60
2019-04-28T10:15:13.613Z,2.20
2019-04-28T10:17:43.149Z,1.90
2019-04-28T10:20:13.066Z,2.27
2019-04-28T10:22:42.348Z,2.03
2019-04-28T10:25:12.205Z,2.10
2019-04-28T10:27:41.484Z,2.30
2019-04-28T10:30:11.697Z,1.87
2019-04-28T10:32:41.145Z,1.70
2019-04-28T10:35:11.123Z,1.80
2019-04-28T10:37:40.401Z,1.87
2019-04-28T10:40:14.234Z,2.10
2019-04-28T10:42:43.822Z,1.50
2019-04-28T10:45:15.004Z,2.13
2019-04-28T10:47:44.281Z,1.70
2019-04-28T10:50:13.993Z,1.77
2019-04-28T10:52:43.269Z,1.33
2019-04-28T10:55:12.994Z,2.63
2019-04-28T10:57:42.289Z,1.70
2019-04-28T11:00:12.728Z,1.83
2019-04-28T11:02:42.864Z,1.40
2019-04-28T11:05:16.958Z,1.90
2019-04-28T11:07:46.245Z,1.80
2019-04-28T11:10:20.183Z,1.63
2019-04-28T11:12:49.774Z,1.50
2019-04-28T11:15:20.925Z,1.57
2019-04-28T11:17:50.213Z,1.60
2019-04-28T11:20:19.490Z,2.03
2019-04-28T11:22:49.125Z,1.63
2019-04-28T11:25:18.738Z,1.50
2019-04-28T11:27:48.017Z,1.80
2019-04-28T11:30:19.403Z,2.03
2019-04-28T11:32:53.189Z,1.90
2019-04-28T11:35:27.018Z,1.63
2019-04-28T11:37:56.320Z,1.50
2019-04-28T11:40:25.720Z,1.50
2019-04-28T11:42:55.001Z,1.83
2019-04-28T11:45:26.331Z,1.23
2019-04-28T11:47:55.606Z,1.80
2019-04-28T11:50:25.849Z,1.30
2019-04-28T11:52:55.118Z,1.60
2019-04-28T11:55:24.401Z,1.63
2019-04-28T11:57:53.668Z,1.80
2019-04-28T12:00:28.125Z,2.00
2019-04-28T12:02:57.393Z,2.17
2019-04-28T12:05:34.426Z,1.83
2019-04-28T12:07:59.359Z,1.90
2019-04-28T12:10:35.813Z,1.67
2019-04-28T12:13:06.725Z,1.90
2019-04-28T12:15:43.613Z,1.43
2019-04-28T12:18:31.402Z,1.80
2019-04-28T12:21:00.697Z,1.90
2019-04-28T12:23:30.025Z,1.57
2019-04-28T12:25:59.652Z,1.63
2019-04-28T12:28:28.961Z,1.50
2019-04-28T12:30:58.516Z,2.20
2019-04-28T12:33:27.793Z,2.30
2019-04-28T12:35:57.321Z,2.17
2019-04-28T12:38:26.941Z,2.27
2019-04-28T12:40:56.221Z,2.13
2019-04-28T12:43:25.497Z,1.90
2019-04-28T12:45:54.849Z,1.50
2019-04-28T12:48:24.121Z,1.80
2019-04-28T12:50:54.248Z,1.80
2019-04-28T12:53:24.073Z,1.50
2019-04-28T12:55:53.673Z,1.43
2019-04-28T12:58:22.954Z,1.37
2019-04-28T13:00:59.750Z,1.80
2019-04-28T13:03:33.089Z,1.10
2019-04-28T13:06:16.286Z,1.50
2019-04-28T13:08:45.569Z,1.50
2019-04-28T13:11:14.843Z,1.30
2019-04-28T13:13:46.781Z,1.00
2019-04-28T13:16:15.371Z,1.20
2019-04-28T13:18:44.633Z,0.73
2019-04-28T13:21:13.920Z,0.80
2019-04-28T13:23:43.201Z,0.70
2019-04-28T13:26:12.871Z,0.53
2019-04-28T13:28:42.147Z,0.70
2019-04-28T13:31:11.430Z,0.70
2019-04-28T13:33:55.393Z,1.30
2019-04-28T13:36:14.968Z,0.60
2019-04-28T13:38:43.118Z,0.73
2019-04-28T13:41:13.758Z,0.77
2019-04-28T13:43:43.075Z,0.63
2019-04-28T13:46:12.697Z,0.83
2019-04-28T13:48:42.041Z,0.70
2019-04-28T13:51:11.325Z,0.70
2019-04-28T13:53:40.620Z,0.97
2019-04-28T13:56:10.302Z,1.00
2019-04-28T13:58:39.858Z,1.00
2019-04-28T14:01:10.777Z,0.70
2019-04-28T14:03:57.664Z,0.70
2019-04-28T14:06:29.046Z,0.33
2019-04-28T14:08:58.352Z,0.50
2019-04-28T14:11:27.669Z,0.50
2019-04-28T14:13:56.995Z,0.40
2019-04-28T14:16:26.293Z,0.40
2019-04-28T14:18:55.561Z,0.40
2019-04-28T14:21:24.867Z,0.50
2019-04-28T14:23:54.120Z,1.10
2019-04-28T14:26:23.398Z,0.60
2019-04-28T14:28:53.005Z,0.50
2019-04-28T14:31:22.878Z,0.37
2019-04-28T14:33:52.223Z,0.40
2019-04-28T14:36:21.627Z,0.30
2019-04-28T14:38:50.946Z,0.33
2019-04-28T14:41:20.276Z,0.40
2019-04-28T14:43:49.549Z,0.40
2019-04-28T14:46:18.830Z,0.43
2019-04-28T14:48:48.145Z,0.40
2019-04-28T14:51:17.588Z,0.43
2019-04-28T14:53:46.903Z,0.67
2019-04-28T14:56:16.446Z,0.90
2019-04-28T14:58:45.807Z,1.50
2019-04-28T15:01:19.474Z,1.53
2019-04-28T15:03:53.097Z,0.60
2019-04-28T15:06:27.045Z,1.20
2019-04-28T15:09:01.326Z,0.90
2019-04-28T15:11:40.311Z,0.50
2019-04-28T15:14:09.921Z,0.83
2019-04-28T15:16:39.245Z,1.20
2019-04-28T15:19:08.545Z,0.67
2019-04-28T15:21:38.007Z,0.90
2019-04-28T15:24:08.350Z,1.00
2019-04-28T15:26:37.629Z,1.30
2019-04-28T15:29:06.897Z,0.70
2019-04-28T15:31:36.186Z,0.70
2019-04-28T15:34:05.753Z,0.50
2019-04-28T15:36:35.037Z,1.80
2019-04-28T15:39:07.098Z,0.70
2019-04-28T15:41:36.737Z,0.53
2019-04-28T15:44:06.011Z,0.53
2019-04-28T15:46:35.291Z,0.87
2019-04-28T15:49:04.567Z,1.00
2019-04-28T15:51:33.857Z,0.60
2019-04-28T15:54:03.433Z,0.70
2019-04-28T15:56:34.357Z,0.60
2019-04-28T15:59:04.342Z,0.50
2019-04-28T16:01:33.637Z,0.70
2019-04-28T16:04:03.206Z,0.70
2019-04-28T16:06:32.481Z,0.70
2019-04-28T16:09:01.751Z,0.77
2019-04-28T16:11:32.653Z,0.80
2019-04-28T16:14:01.938Z,0.90
2019-04-28T16:16:31.397Z,0.83
2019-04-28T16:19:00.665Z,0.57
2019-04-28T16:21:29.951Z,0.60
2019-04-28T16:23:59.389Z,1.00
2019-04-28T16:26:28.689Z,0.83
2019-04-28T16:28:57.957Z,0.80
2019-04-28T16:31:27.228Z,1.30
2019-04-28T16:33:56.509Z,0.90
2019-04-28T16:36:26.057Z,0.80
2019-04-28T16:38:55.338Z,0.93
2019-04-28T16:41:24.610Z,0.93
2019-04-28T16:43:53.893Z,0.60
2019-04-28T16:46:23.193Z,1.77
2019-04-28T16:48:52.472Z,1.30
2019-04-28T16:51:21.744Z,0.90
2019-04-28T16:53:51.030Z,1.03
2019-04-28T16:56:38.194Z,1.00
2019-04-28T16:59:20.889Z,0.80
2019-04-28T17:01:51.810Z,1.10
2019-04-28T17:04:21.441Z,1.03
2019-04-28T17:06:50.717Z,0.80
2019-04-28T17:09:21.898Z,0.90
2019-04-28T17:11:51.228Z,0.70
2019-04-28T17:14:20.513Z,0.70
2019-04-28T17:16:49.780Z,0.80
2019-04-28T17:19:19.069Z,1.27
2019-04-28T17:21:48.339Z,1.10
2019-04-28T17:24:17.613Z,0.87
2019-04-28T17:26:47.289Z,1.40
2019-04-28T17:29:16.645Z,1.23
2019-04-28T17:31:45.922Z,1.00
2019-04-28T17:34:15.204Z,1.30
2019-04-28T17:36:44.704Z,1.00
2019-04-28T17:39:15.958Z,0.90
2019-04-28T17:41:45.309Z,0.93
2019-04-28T17:44:17.054Z,0.90
2019-04-28T17:46:45.553Z,0.80
2019-04-28T17:49:14.841Z,0.70
2019-04-28T17:51:44.509Z,0.80
2019-04-28T17:54:14.119Z,0.67
2019-04-28T17:56:43.381Z,0.87
2019-04-28T17:59:12.665Z,1.00
2019-04-28T18:01:49.611Z,0.90
2019-04-28T18:04:24.301Z,0.90
2019-04-28T18:06:55.475Z,0.80
2019-04-28T18:09:24.764Z,1.20
2019-04-28T18:11:54.281Z,0.90
2019-04-28T18:14:23.558Z,1.30
2019-04-28T18:16:54.721Z,0.97
2019-04-28T18:19:25.970Z,0.97
2019-04-28T18:21:55.575Z,0.90
2019-04-28T18:24:24.970Z,1.00
2019-04-28T18:26:54.319Z,1.07
2019-04-28T18:29:23.584Z,1.00
2019-04-28T18:32:06.377Z,0.80
2019-04-28T18:34:37.552Z,0.93
2019-04-28T18:37:20.256Z,0.90
2019-04-28T18:40:03.258Z,1.40
2019-04-28T18:42:40.589Z,1.27
2019-04-28T18:45:10.397Z,1.10
2019-04-28T18:47:39.681Z,0.70
2019-04-28T18:50:09.449Z,1.20
2019-04-28T18:52:38.777Z,1.23
2019-04-28T18:55:08.231Z,0.90
2019-04-28T18:57:37.573Z,1.20
2019-04-28T19:00:07.348Z,1.33
2019-04-28T19:02:39.741Z,1.37
2019-04-28T19:05:10.614Z,1.20
2019-04-28T19:07:50.277Z,1.57
2019-04-28T19:10:40.333Z,1.50
2019-04-28T19:13:24.213Z,1.33
2019-04-28T19:15:55.129Z,0.90
2019-04-28T19:18:28.952Z,1.13
2019-04-28T19:20:58.225Z,1.53
2019-04-28T19:23:28.984Z,1.10
2019-04-28T19:25:58.261Z,1.50
2019-04-28T19:28:27.548Z,0.90
2019-04-28T19:30:58.218Z,1.40
2019-04-28T19:33:27.583Z,1.20
2019-04-28T19:35:57.941Z,1.90
2019-04-28T19:38:27.217Z,2.20
2019-04-28T19:40:56.666Z,2.37
2019-04-28T19:43:25.892Z,2.30
2019-04-28T19:45:58.118Z,1.73
2019-04-28T19:48:27.399Z,1.17
2019-04-28T19:50:56.739Z,1.70
2019-04-28T19:53:26.016Z,1.73
2019-04-28T19:56:05.856Z,1.60
2019-04-28T19:58:37.114Z,1.40
2019-04-28T20:01:08.361Z,1.50
2019-04-28T20:03:37.699Z,2.20
2019-04-28T20:06:06.989Z,2.10
2019-04-28T20:08:36.266Z,2.57
2019-04-28T20:11:05.541Z,2.87
2019-04-28T20:13:35.075Z,2.93
2019-04-28T20:16:04.573Z,3.93
2019-04-28T20:18:34.218Z,4.43
2019-04-28T20:21:03.617Z,4.10
2019-04-28T20:23:33.317Z,2.77
2019-04-28T20:26:02.821Z,2.70
2019-04-28T20:28:32.162Z,2.80
2019-04-28T20:31:01.433Z,3.07
2019-04-28T20:33:31.900Z,2.63
2019-04-28T20:36:05.919Z,2.73
2019-04-28T20:38:35.450Z,3.37
2019-04-28T20:41:15.779Z,3.05
2019-04-28T20:43:45.050Z,3.13
2019-04-28T20:46:14.617Z,3.40
2019-04-28T20:48:44.222Z,3.00
2019-04-28T20:51:13.919Z,2.80
2019-04-28T20:53:43.261Z,2.65
2019-04-28T20:56:12.538Z,2.70
2019-04-28T20:58:41.872Z,2.75
2019-04-28T21:01:11.626Z,3.40
2019-04-28T21:03:41.101Z,2.72
2019-04-28T21:06:10.431Z,3.12
2019-04-28T21:08:39.702Z,3.10
2019-04-28T21:11:08.993Z,2.95
2019-04-28T21:13:38.262Z,2.92
2019-04-28T21:16:07.865Z,3.20
2019-04-28T21:18:37.146Z,4.05
2019-04-28T21:21:06.437Z,3.50
2019-04-28T21:23:35.765Z,3.27
2019-04-28T21:26:05.423Z,2.85
2019-04-28T21:28:34.689Z,3.42
2019-04-28T21:31:03.967Z,3.50
2019-04-28T21:33:33.234Z,3.85
2019-04-28T21:36:02.785Z,3.20
2019-04-28T21:38:32.210Z,3.62
2019-04-28T21:41:01.591Z,3.42
2019-04-28T21:43:41.882Z,3.05
2019-04-28T21:46:21.676Z,3.30
2019-04-28T21:48:52.614Z,3.62
2019-04-28T21:51:22.391Z,4.08
2019-04-28T21:53:51.954Z,4.90
2019-04-28T21:56:21.240Z,5.05
2019-04-28T21:58:51.296Z,4.40
2019-04-28T22:01:22.467Z,4.67
2019-04-28T22:03:51.870Z,3.77
2019-04-28T22:06:21.353Z,4.22
2019-04-28T22:08:50.689Z,4.30
2019-04-28T22:11:20.233Z,4.60
2019-04-28T22:13:49.569Z,6.45
2019-04-28T22:16:18.862Z,6.37
2019-04-28T22:18:48.137Z,6.00
2019-04-28T22:21:17.404Z,5.70
2019-04-28T22:23:54.569Z,6.40
2019-04-28T22:26:43.095Z,4.67
2019-04-28T22:29:13.361Z,5.10
2019-04-28T22:31:43.585Z,4.33
2019-04-28T22:34:14.494Z,4.00
2019-04-28T22:36:45.554Z,5.50
2019-04-28T22:39:15.465Z,4.97
2019-04-28T22:41:44.919Z,5.53
2019-04-28T22:44:14.189Z,4.97
2019-04-28T22:46:43.729Z,5.10
2019-04-28T22:49:14.077Z,5.05
2019-04-28T22:51:43.663Z,4.65
2019-04-28T22:54:14.618Z,4.90
2019-04-28T22:56:45.806Z,4.20
2019-04-28T22:59:19.302Z,4.65
2019-04-28T23:01:50.272Z,4.45
2019-04-28T23:04:30.352Z,4.87
2019-04-28T23:07:00.049Z,5.20
2019-04-28T23:09:29.597Z,4.90
2019-04-28T23:11:58.934Z,4.80
2019-04-28T23:14:28.382Z,4.83
2019-04-28T23:16:57.818Z,5.00
2019-04-28T23:19:29.032Z,5.25
2019-04-28T23:22:02.955Z,4.90
2019-04-28T23:24:32.242Z,4.40
2019-04-28T23:27:01.520Z,4.37
2019-04-28T23:29:30.850Z,4.58
2019-04-28T23:32:00.105Z,4.78
2019-04-28T23:34:29.411Z,4.80
2019-04-28T23:36:58.681Z,4.08
2019-04-28T23:39:27.957Z,4.42
2019-04-28T23:42:01.649Z,4.78
2019-04-28T23:44:30.925Z,4.45
2019-04-28T23:47:01.270Z,4.17
2019-04-28T23:49:31.170Z,4.90
2019-04-28T23:52:11.120Z,4.37
2019-04-28T23:54:42.048Z,5.20
2019-04-28T23:57:11.323Z,5.40
2019-04-28T23:59:40.590Z,5.22
